createdAt,value
2018-05-19T00:00:58.884Z,0.00
2018-05-19T00:01:59.104Z,0.00
2018-05-19T00:02:59.330Z,0.00
2018-05-19T00:03:59.558Z,0.00
2018-05-19T00:04:59.796Z,0.00
2018-05-19T00:06:00.018Z,0.00
2018-05-19T00:07:00.243Z,0.00
2018-05-19T00:08:00.472Z,0.00
2018-05-19T00:09:00.693Z,0.00
2018-05-19T00:10:00.920Z,0.00
2018-05-19T00:11:01.148Z,0.00
2018-05-19T00:12:01.382Z,0.00
2018-05-19T00:13:01.599Z,0.00
2018-05-19T00:14:01.830Z,0.00
2018-05-19T00:15:02.043Z,0.00
2018-05-19T00:16:02.262Z,0.00
2018-05-19T00:17:02.495Z,0.00
2018-05-19T00:18:02.723Z,0.00
2018-05-19T00:19:02.953Z,0.00
2018-05-19T00:20:03.178Z,0.00
2018-05-19T00:21:03.405Z,0.00
2018-05-19T00:22:03.631Z,0.00
2018-05-19T00:23:03.858Z,0.00
2018-05-19T00:24:04.083Z,0.00
2018-05-19T00:25:04.310Z,0.00
2018-05-19T00:26:04.536Z,0.00
2018-05-19T00:27:04.762Z,0.00
2018-05-19T00:28:04.988Z,0.00
2018-05-19T00:29:05.218Z,0.00
2018-05-19T00:30:05.446Z,0.00
2018-05-19T00:31:05.669Z,0.00
2018-05-19T00:32:05.895Z,0.00
2018-05-19T00:33:06.128Z,0.00
2018-05-19T00:34:06.355Z,0.00
2018-05-19T00:35:06.583Z,0.00
2018-05-19T00:36:06.796Z,0.00
2018-05-19T00:37:07.013Z,0.00
2018-05-19T00:38:07.243Z,0.00
2018-05-19T00:39:07.471Z,0.00
2018-05-19T00:40:07.698Z,0.00
2018-05-19T00:41:07.928Z,0.00
2018-05-19T00:42:08.150Z,0.00
2018-05-19T00:43:08.378Z,0.00
2018-05-19T00:44:08.607Z,0.00
2018-05-19T00:45:08.837Z,0.00
2018-05-19T00:46:09.065Z,0.00
2018-05-19T00:47:09.307Z,0.00
2018-05-19T00:48:09.515Z,0.00
2018-05-19T00:49:09.743Z,0.00
2018-05-19T00:50:09.968Z,0.00
2018-05-19T00:51:10.196Z,0.00
2018-05-19T00:52:10.421Z,0.00
2018-05-19T00:53:10.649Z,0.00
2018-05-19T00:54:10.876Z,0.00
2018-05-19T00:55:11.104Z,0.00
2018-05-19T00:56:11.327Z,0.00
2018-05-19T00:57:11.557Z,0.00
2018-05-19T00:58:11.787Z,0.00
2018-05-19T00:59:12.028Z,0.00
2018-05-19T01:00:12.240Z,0.00
2018-05-19T01:01:12.471Z,0.00
2018-05-19T01:02:12.684Z,0.00
2018-05-19T01:03:12.903Z,0.00
2018-05-19T01:04:13.128Z,0.00
2018-05-19T01:05:13.366Z,0.00
2018-05-19T01:06:13.571Z,0.00
2018-05-19T01:07:13.800Z,0.00
2018-05-19T01:08:14.024Z,0.00
2018-05-19T01:09:14.248Z,0.00
2018-05-19T01:10:14.476Z,0.00
2018-05-19T01:11:14.702Z,0.00
2018-05-19T01:12:14.928Z,0.00
2018-05-19T01:13:15.155Z,0.00
2018-05-19T01:14:15.381Z,0.00
2018-05-19T01:15:15.610Z,0.00
2018-05-19T01:16:15.840Z,0.00
2018-05-19T01:17:16.060Z,0.00
2018-05-19T01:18:16.289Z,0.00
2018-05-19T01:19:16.513Z,0.00
2018-05-19T01:20:16.753Z,0.00
2018-05-19T01:21:16.979Z,0.00
2018-05-19T01:22:17.199Z,0.00
2018-05-19T01:23:17.428Z,0.00
2018-05-19T01:24:17.644Z,0.00
2018-05-19T01:25:17.866Z,0.00
2018-05-19T01:26:18.092Z,0.00
2018-05-19T01:27:18.315Z,0.00
2018-05-19T01:28:18.541Z,0.00
2018-05-19T01:29:18.769Z,0.00
2018-05-19T01:30:19.055Z,0.00
2018-05-19T01:31:19.221Z,0.00
2018-05-19T01:32:19.442Z,0.00
2018-05-19T01:33:19.677Z,0.00
2018-05-19T01:34:19.908Z,0.00
2018-05-19T01:35:20.135Z,0.00
2018-05-19T01:36:20.362Z,0.00
2018-05-19T01:37:20.599Z,0.00
2018-05-19T01:38:20.808Z,0.00
2018-05-19T01:39:21.041Z,0.00
2018-05-19T01:40:21.270Z,0.00
2018-05-19T01:41:21.488Z,0.00
2018-05-19T01:42:21.719Z,0.00
2018-05-19T01:43:21.942Z,0.00
2018-05-19T01:44:22.172Z,0.00
2018-05-19T01:45:22.393Z,0.00
2018-05-19T01:46:22.622Z,0.00
2018-05-19T01:47:22.861Z,0.00
2018-05-19T01:48:23.067Z,0.00
2018-05-19T01:49:23.292Z,0.00
2018-05-19T01:50:23.517Z,0.00
2018-05-19T01:51:23.748Z,0.00
2018-05-19T01:52:23.981Z,0.00
2018-05-19T01:53:24.198Z,0.00
2018-05-19T01:54:24.428Z,0.00
2018-05-19T01:55:24.653Z,0.00
2018-05-19T01:56:24.880Z,0.00
2018-05-19T01:57:25.107Z,0.00
2018-05-19T01:58:25.333Z,0.00
2018-05-19T01:59:25.566Z,0.00
2018-05-19T02:00:25.786Z,0.00
2018-05-19T02:01:26.014Z,0.00
2018-05-19T02:02:26.249Z,0.00
2018-05-19T02:03:26.465Z,0.00
2018-05-19T02:04:26.697Z,0.00
2018-05-19T02:05:26.923Z,0.00
2018-05-19T02:06:27.150Z,0.00
2018-05-19T02:07:27.385Z,0.00
2018-05-19T02:08:27.603Z,0.00
2018-05-19T02:09:27.838Z,0.00
2018-05-19T02:10:28.059Z,0.00
2018-05-19T02:11:28.284Z,0.00
2018-05-19T02:12:28.513Z,0.00
2018-05-19T02:13:28.741Z,0.00
2018-05-19T02:14:28.966Z,0.00
2018-05-19T02:15:29.194Z,0.00
2018-05-19T02:16:29.423Z,0.00
2018-05-19T02:17:29.651Z,0.00
2018-05-19T02:18:29.874Z,0.00
2018-05-19T02:19:30.099Z,0.00
2018-05-19T02:20:30.325Z,0.00
2018-05-19T02:21:30.551Z,0.00
2018-05-19T02:22:30.781Z,0.00
2018-05-19T02:23:31.018Z,0.00
2018-05-19T02:24:31.233Z,0.00
2018-05-19T02:25:31.462Z,0.00
2018-05-19T02:26:31.689Z,0.00
2018-05-19T02:27:31.911Z,0.00
2018-05-19T02:28:32.138Z,0.00
2018-05-19T02:29:32.368Z,0.00
2018-05-19T02:30:32.593Z,0.00
2018-05-19T02:31:32.814Z,0.00
2018-05-19T02:32:33.046Z,0.00
2018-05-19T02:33:33.273Z,0.00
2018-05-19T02:34:33.498Z,0.00
2018-05-19T02:35:33.725Z,0.00
2018-05-19T02:36:33.953Z,0.00
2018-05-19T02:37:34.183Z,0.00
2018-05-19T02:38:34.410Z,0.00
2018-05-19T02:39:34.632Z,0.00
2018-05-19T02:40:34.858Z,0.00
2018-05-19T02:41:35.083Z,0.00
2018-05-19T02:42:35.313Z,0.00
2018-05-19T02:43:35.545Z,0.00
2018-05-19T02:44:35.759Z,0.00
2018-05-19T02:45:35.985Z,0.00
2018-05-19T02:46:36.210Z,0.00
2018-05-19T02:47:36.431Z,0.00
2018-05-19T02:48:36.659Z,0.00
2018-05-19T02:49:36.887Z,0.00
2018-05-19T02:50:37.121Z,0.00
2018-05-19T02:51:37.337Z,0.00
2018-05-19T02:52:37.563Z,0.00
2018-05-19T02:53:37.793Z,0.00
2018-05-19T02:54:38.017Z,0.00
2018-05-19T02:55:38.248Z,0.00
2018-05-19T02:56:38.473Z,0.00
2018-05-19T02:57:38.697Z,0.00
2018-05-19T02:58:38.931Z,0.00
2018-05-19T02:59:39.183Z,0.00
2018-05-19T03:00:39.378Z,0.00
2018-05-19T03:01:39.605Z,0.00
2018-05-19T03:02:39.830Z,0.00
2018-05-19T03:03:40.059Z,0.00
2018-05-19T03:04:40.279Z,0.00
2018-05-19T03:05:40.509Z,0.00
2018-05-19T03:06:40.732Z,0.00
2018-05-19T03:07:40.959Z,0.00
2018-05-19T03:08:41.179Z,0.00
2018-05-19T03:09:41.405Z,0.00
2018-05-19T03:10:41.626Z,0.00
2018-05-19T03:11:41.859Z,0.00
2018-05-19T03:12:42.088Z,0.00
2018-05-19T03:13:42.316Z,0.00
2018-05-19T03:14:42.534Z,0.00
2018-05-19T03:15:42.757Z,0.00
2018-05-19T03:16:42.989Z,0.00
2018-05-19T03:17:43.219Z,0.00
2018-05-19T03:18:43.444Z,0.00
2018-05-19T03:19:43.669Z,5.63
2018-05-19T03:20:43.893Z,5.63
2018-05-19T03:21:44.118Z,5.63
2018-05-19T03:22:44.348Z,5.63
2018-05-19T03:23:44.576Z,5.63
2018-05-19T03:24:44.804Z,5.63
2018-05-19T03:25:45.029Z,5.63
2018-05-19T03:26:45.300Z,5.63
2018-05-19T03:27:45.486Z,5.63
2018-05-19T03:28:45.710Z,5.63
2018-05-19T03:29:45.934Z,5.63
2018-05-19T03:30:46.165Z,11.25
2018-05-19T03:31:46.441Z,11.25
2018-05-19T03:32:46.626Z,11.25
2018-05-19T03:33:46.851Z,11.25
2018-05-19T03:34:47.078Z,11.25
2018-05-19T03:35:47.300Z,11.25
2018-05-19T03:36:47.526Z,16.88
2018-05-19T03:37:47.757Z,16.88
2018-05-19T03:38:47.985Z,16.88
2018-05-19T03:39:48.212Z,16.88
2018-05-19T03:40:48.440Z,22.50
2018-05-19T03:41:48.668Z,22.50
2018-05-19T03:42:48.902Z,28.13
2018-05-19T03:43:49.130Z,28.13
2018-05-19T03:44:49.350Z,28.13
2018-05-19T03:45:49.577Z,33.75
2018-05-19T03:46:49.810Z,33.75
2018-05-19T03:47:50.038Z,33.75
2018-05-19T03:48:50.265Z,39.38
2018-05-19T03:49:50.492Z,39.38
2018-05-19T03:50:50.719Z,39.38
2018-05-19T03:51:50.946Z,45.00
2018-05-19T03:52:51.183Z,45.00
2018-05-19T03:53:51.494Z,45.00
2018-05-19T03:54:51.638Z,50.63
2018-05-19T03:55:51.855Z,50.63
2018-05-19T03:56:52.082Z,56.25
2018-05-19T03:57:52.308Z,56.25
2018-05-19T03:58:52.535Z,56.25
2018-05-19T03:59:52.762Z,61.88
2018-05-19T04:00:52.993Z,61.88
2018-05-19T04:01:53.219Z,61.88
2018-05-19T04:02:53.447Z,61.88
2018-05-19T04:03:53.675Z,67.50
2018-05-19T04:04:53.900Z,67.50
2018-05-19T04:05:54.128Z,73.13
2018-05-19T04:06:54.355Z,84.38
2018-05-19T04:07:54.582Z,84.38
2018-05-19T04:08:54.809Z,95.63
2018-05-19T04:09:55.044Z,101.25
2018-05-19T04:10:55.335Z,101.25
2018-05-19T04:11:55.492Z,112.50
2018-05-19T04:12:55.720Z,112.50
2018-05-19T04:13:55.937Z,118.13
2018-05-19T04:14:56.167Z,118.13
2018-05-19T04:15:56.390Z,118.13
2018-05-19T04:16:56.617Z,123.75
2018-05-19T04:17:56.853Z,123.75
2018-05-19T04:18:57.074Z,129.38
2018-05-19T04:19:57.302Z,135.00
2018-05-19T04:20:57.530Z,140.63
2018-05-19T04:21:57.760Z,140.63
2018-05-19T04:22:57.985Z,140.63
2018-05-19T04:23:58.212Z,146.25
2018-05-19T04:24:58.434Z,157.50
2018-05-19T04:25:58.667Z,168.75
2018-05-19T04:26:58.895Z,180.00
2018-05-19T04:27:59.121Z,174.38
2018-05-19T04:28:59.352Z,174.38
2018-05-19T04:29:59.577Z,180.00
2018-05-19T04:30:59.807Z,185.63
2018-05-19T04:32:00.033Z,191.25
2018-05-19T04:33:00.265Z,196.88
2018-05-19T04:34:00.492Z,208.13
2018-05-19T04:35:00.722Z,213.75
2018-05-19T04:36:00.950Z,213.75
2018-05-19T04:37:01.190Z,208.13
2018-05-19T04:38:01.408Z,208.13
2018-05-19T04:39:01.638Z,213.75
2018-05-19T04:40:01.863Z,219.38
2018-05-19T04:41:02.096Z,219.38
2018-05-19T04:42:02.319Z,219.38
2018-05-19T04:43:02.545Z,213.75
2018-05-19T04:44:02.764Z,219.38
2018-05-19T04:45:02.991Z,236.25
2018-05-19T04:46:03.216Z,241.88
2018-05-19T04:47:03.443Z,241.88
2018-05-19T04:48:03.670Z,241.88
2018-05-19T04:49:03.901Z,241.88
2018-05-19T04:50:04.122Z,241.88
2018-05-19T04:51:04.347Z,247.50
2018-05-19T04:52:04.575Z,253.13
2018-05-19T04:53:04.804Z,253.13
2018-05-19T04:54:05.031Z,247.50
2018-05-19T04:55:05.261Z,241.88
2018-05-19T04:56:05.489Z,253.13
2018-05-19T04:57:05.720Z,270.00
2018-05-19T04:58:05.947Z,292.50
2018-05-19T04:59:06.179Z,303.75
2018-05-19T05:00:06.401Z,298.13
2018-05-19T05:01:06.624Z,292.50
2018-05-19T05:02:06.856Z,303.75
2018-05-19T05:03:07.089Z,320.63
2018-05-19T05:04:07.405Z,320.63
2018-05-19T05:05:07.547Z,348.75
2018-05-19T05:06:07.777Z,382.50
2018-05-19T05:07:08.010Z,382.50
2018-05-19T05:08:08.238Z,376.88
2018-05-19T05:09:08.460Z,416.25
2018-05-19T05:10:08.690Z,455.63
2018-05-19T05:11:08.923Z,478.13
2018-05-19T05:12:09.145Z,466.88
2018-05-19T05:13:09.376Z,472.50
2018-05-19T05:14:09.605Z,461.25
2018-05-19T05:15:09.833Z,483.75
2018-05-19T05:16:10.058Z,495.00
2018-05-19T05:17:10.290Z,500.63
2018-05-19T05:18:10.519Z,472.50
2018-05-19T05:19:10.737Z,410.63
2018-05-19T05:20:10.963Z,427.50
2018-05-19T05:21:11.196Z,461.25
2018-05-19T05:22:11.432Z,455.63
2018-05-19T05:23:11.651Z,438.75
2018-05-19T05:24:11.884Z,427.50
2018-05-19T05:25:12.110Z,444.38
2018-05-19T05:26:12.348Z,455.63
2018-05-19T05:27:12.608Z,433.13
2018-05-19T05:28:12.834Z,405.00
2018-05-19T05:29:13.067Z,393.75
2018-05-19T05:30:13.297Z,388.13
2018-05-19T05:31:13.527Z,382.50
2018-05-19T05:32:13.756Z,382.50
2018-05-19T05:33:13.986Z,382.50
2018-05-19T05:34:14.208Z,376.88
2018-05-19T05:35:14.441Z,376.88
2018-05-19T05:36:14.672Z,382.50
2018-05-19T05:37:14.899Z,388.13
2018-05-19T05:38:15.128Z,393.75
2018-05-19T05:39:15.358Z,399.38
2018-05-19T05:40:15.592Z,410.63
2018-05-19T05:41:15.821Z,399.38
2018-05-19T05:42:16.053Z,410.63
2018-05-19T05:43:16.368Z,416.25
2018-05-19T05:44:16.517Z,416.25
2018-05-19T05:45:16.746Z,416.25
2018-05-19T05:46:16.981Z,416.25
2018-05-19T05:47:17.202Z,427.50
2018-05-19T05:48:17.430Z,438.75
2018-05-19T05:49:17.660Z,438.75
2018-05-19T05:50:17.891Z,433.13
2018-05-19T05:51:18.121Z,438.75
2018-05-19T05:52:18.352Z,444.38
2018-05-19T05:53:18.584Z,444.38
2018-05-19T05:54:18.814Z,444.38
2018-05-19T05:55:19.049Z,444.38
2018-05-19T05:56:19.271Z,444.38
2018-05-19T05:57:19.504Z,455.63
2018-05-19T05:58:19.735Z,455.63
2018-05-19T05:59:19.956Z,455.63
2018-05-19T06:00:20.189Z,450.00
2018-05-19T06:01:20.414Z,455.63
2018-05-19T06:02:20.642Z,450.00
2018-05-19T06:03:20.872Z,455.63
2018-05-19T06:04:21.102Z,455.63
2018-05-19T06:05:21.329Z,455.63
2018-05-19T06:06:21.617Z,455.63
2018-05-19T06:07:21.796Z,461.25
2018-05-19T06:08:22.019Z,461.25
2018-05-19T06:09:22.249Z,461.25
2018-05-19T06:10:22.478Z,455.63
2018-05-19T06:11:22.709Z,455.63
2018-05-19T06:12:22.940Z,455.63
2018-05-19T06:13:23.172Z,466.88
2018-05-19T06:14:23.400Z,461.25
2018-05-19T06:15:23.633Z,455.63
2018-05-19T06:16:23.862Z,455.63
2018-05-19T06:17:24.095Z,455.63
2018-05-19T06:18:24.324Z,461.25
2018-05-19T06:19:24.556Z,455.63
2018-05-19T06:20:24.782Z,455.63
2018-05-19T06:21:25.020Z,455.63
2018-05-19T06:22:25.250Z,455.63
2018-05-19T06:23:25.480Z,466.88
2018-05-19T06:24:25.714Z,461.25
2018-05-19T06:25:25.942Z,461.25
2018-05-19T06:26:26.173Z,461.25
2018-05-19T06:27:26.401Z,466.88
2018-05-19T06:28:26.636Z,472.50
2018-05-19T06:29:26.863Z,478.13
2018-05-19T06:30:27.097Z,489.38
2018-05-19T06:31:27.325Z,506.25
2018-05-19T06:32:27.554Z,506.25
2018-05-19T06:33:27.785Z,523.13
2018-05-19T06:34:28.017Z,523.13
2018-05-19T06:35:28.246Z,528.75
2018-05-19T06:36:28.479Z,534.38
2018-05-19T06:37:28.707Z,540.00
2018-05-19T06:38:28.936Z,545.63
2018-05-19T06:39:29.171Z,551.25
2018-05-19T06:40:29.402Z,562.50
2018-05-19T06:41:29.630Z,562.50
2018-05-19T06:42:29.861Z,562.50
2018-05-19T06:43:30.097Z,556.88
2018-05-19T06:44:30.325Z,545.63
2018-05-19T06:45:30.561Z,540.00
2018-05-19T06:46:30.783Z,545.63
2018-05-19T06:47:31.016Z,545.63
2018-05-19T06:48:31.245Z,545.63
2018-05-19T06:49:31.481Z,545.63
2018-05-19T06:50:31.712Z,540.00
2018-05-19T06:51:31.935Z,545.63
2018-05-19T06:52:32.164Z,551.25
2018-05-19T06:53:32.401Z,545.63
2018-05-19T06:54:32.630Z,545.63
2018-05-19T06:55:32.873Z,545.63
2018-05-19T06:56:33.095Z,545.63
2018-05-19T06:57:33.327Z,540.00
2018-05-19T06:58:33.556Z,534.38
2018-05-19T06:59:33.787Z,534.38
2018-05-19T07:00:34.019Z,534.38
2018-05-19T07:01:34.248Z,540.00
2018-05-19T07:02:34.489Z,540.00
2018-05-19T07:03:34.713Z,540.00
2018-05-19T07:04:34.945Z,545.63
2018-05-19T07:05:35.186Z,545.63
2018-05-19T07:06:35.412Z,551.25
2018-05-19T07:07:35.652Z,551.25
2018-05-19T07:08:35.883Z,551.25
2018-05-19T07:09:36.115Z,556.88
2018-05-19T07:10:36.355Z,556.88
2018-05-19T07:11:36.585Z,556.88
2018-05-19T07:12:36.800Z,556.88
2018-05-19T07:13:37.032Z,562.50
2018-05-19T07:14:37.273Z,562.50
2018-05-19T07:15:37.502Z,562.50
2018-05-19T07:16:37.742Z,568.13
2018-05-19T07:17:37.952Z,562.50
2018-05-19T07:18:38.200Z,556.88
2018-05-19T07:19:38.432Z,573.75
2018-05-19T07:20:38.676Z,573.75
2018-05-19T07:21:38.895Z,585.00
2018-05-19T07:22:39.118Z,585.00
2018-05-19T07:23:39.356Z,585.00
2018-05-19T07:24:39.585Z,573.75
2018-05-19T07:25:39.821Z,562.50
2018-05-19T07:26:40.051Z,573.75
2018-05-19T07:27:40.280Z,573.75
2018-05-19T07:28:40.513Z,568.13
2018-05-19T07:29:40.750Z,556.88
2018-05-19T07:30:40.978Z,556.88
2018-05-19T07:31:41.206Z,568.13
2018-05-19T07:32:41.429Z,551.25
2018-05-19T07:33:41.669Z,551.25
2018-05-19T07:34:41.909Z,556.88
2018-05-19T07:35:42.205Z,556.88
2018-05-19T07:36:42.375Z,556.88
2018-05-19T07:37:42.599Z,545.63
2018-05-19T07:38:42.833Z,551.25
2018-05-19T07:39:43.055Z,551.25
2018-05-19T07:40:43.298Z,528.75
2018-05-19T07:41:43.532Z,528.75
2018-05-19T07:42:43.752Z,528.75
2018-05-19T07:43:43.976Z,556.88
2018-05-19T07:44:44.213Z,534.38
2018-05-19T07:45:44.445Z,540.00
2018-05-19T07:46:44.677Z,545.63
2018-05-19T07:47:44.926Z,540.00
2018-05-19T07:48:45.142Z,545.63
2018-05-19T07:49:45.370Z,556.88
2018-05-19T07:50:45.619Z,551.25
2018-05-19T07:51:45.840Z,534.38
2018-05-19T07:52:46.073Z,540.00
2018-05-19T07:53:46.302Z,540.00
2018-05-19T07:54:46.533Z,551.25
2018-05-19T07:55:46.765Z,540.00
2018-05-19T07:56:47.000Z,556.88
2018-05-19T07:57:47.232Z,568.13
2018-05-19T07:58:47.462Z,568.13
2018-05-19T07:59:47.698Z,573.75
2018-05-19T08:00:47.935Z,579.38
2018-05-19T08:01:48.168Z,585.00
2018-05-19T08:02:48.407Z,601.88
2018-05-19T08:03:48.635Z,618.75
2018-05-19T08:04:48.869Z,607.50
2018-05-19T08:05:49.105Z,630.00
2018-05-19T08:06:49.340Z,630.00
2018-05-19T08:07:49.578Z,652.50
2018-05-19T08:08:49.811Z,641.25
2018-05-19T08:09:50.053Z,635.63
2018-05-19T08:10:50.272Z,607.50
2018-05-19T08:11:50.512Z,601.88
2018-05-19T08:12:50.743Z,596.25
2018-05-19T08:13:50.976Z,590.63
2018-05-19T08:14:51.208Z,590.63
2018-05-19T08:15:51.441Z,590.63
2018-05-19T08:16:51.673Z,590.63
2018-05-19T08:17:51.905Z,601.88
2018-05-19T08:18:52.137Z,607.50
2018-05-19T08:19:52.373Z,618.75
2018-05-19T08:20:52.602Z,624.38
2018-05-19T08:21:52.843Z,630.00
2018-05-19T08:22:53.062Z,630.00
2018-05-19T08:23:53.292Z,618.75
2018-05-19T08:24:53.533Z,613.13
2018-05-19T08:25:53.756Z,618.75
2018-05-19T08:26:53.987Z,601.88
2018-05-19T08:27:54.224Z,596.25
2018-05-19T08:28:54.449Z,590.63
2018-05-19T08:29:54.685Z,585.00
2018-05-19T08:30:54.916Z,590.63
2018-05-19T08:31:55.154Z,601.88
2018-05-19T08:32:55.388Z,596.25
2018-05-19T08:33:55.623Z,590.63
2018-05-19T08:34:55.848Z,596.25
2018-05-19T08:35:56.079Z,607.50
2018-05-19T08:36:56.312Z,613.13
2018-05-19T08:37:56.550Z,618.75
2018-05-19T08:38:56.780Z,618.75
2018-05-19T08:39:57.015Z,624.38
2018-05-19T08:40:57.249Z,613.13
2018-05-19T08:41:57.477Z,613.13
2018-05-19T08:42:57.713Z,607.50
2018-05-19T08:43:57.944Z,607.50
2018-05-19T08:44:58.172Z,601.88
2018-05-19T08:45:58.407Z,601.88
2018-05-19T08:46:58.641Z,596.25
2018-05-19T08:47:58.878Z,590.63
2018-05-19T08:48:59.109Z,635.63
2018-05-19T08:49:59.344Z,630.00
2018-05-19T08:50:59.577Z,528.75
2018-05-19T08:51:59.806Z,500.63
2018-05-19T08:53:00.042Z,478.13
2018-05-19T08:54:00.280Z,461.25
2018-05-19T08:55:00.511Z,455.63
2018-05-19T08:56:01.687Z,438.75
2018-05-19T08:57:00.912Z,421.88
2018-05-19T08:58:01.154Z,410.63
2018-05-19T08:59:01.423Z,399.38
2018-05-19T09:00:01.615Z,388.13
2018-05-19T09:01:01.851Z,371.25
2018-05-19T09:02:02.078Z,365.63
2018-05-19T09:03:02.383Z,360.00
2018-05-19T09:04:02.540Z,360.00
2018-05-19T09:05:02.769Z,365.63
2018-05-19T09:06:03.003Z,382.50
2018-05-19T09:07:03.235Z,399.38
2018-05-19T09:08:03.468Z,421.88
2018-05-19T09:09:03.699Z,438.75
2018-05-19T09:10:03.934Z,455.63
2018-05-19T09:11:04.179Z,466.88
2018-05-19T09:12:04.390Z,478.13
2018-05-19T09:13:04.628Z,478.13
2018-05-19T09:14:04.857Z,483.75
2018-05-19T09:15:05.093Z,483.75
2018-05-19T09:16:05.324Z,483.75
2018-05-19T09:17:05.553Z,489.38
2018-05-19T09:18:05.782Z,489.38
2018-05-19T09:19:06.009Z,495.00
2018-05-19T09:20:06.242Z,511.88
2018-05-19T09:21:06.483Z,517.50
2018-05-19T09:22:06.708Z,523.13
2018-05-19T09:23:07.006Z,523.13
2018-05-19T09:24:07.175Z,528.75
2018-05-19T09:25:07.409Z,517.50
2018-05-19T09:26:07.638Z,517.50
2018-05-19T09:27:07.869Z,511.88
2018-05-19T09:28:08.106Z,506.25
2018-05-19T09:29:08.335Z,500.63
2018-05-19T09:30:08.566Z,489.38
2018-05-19T09:31:08.800Z,483.75
2018-05-19T09:32:09.033Z,483.75
2018-05-19T09:33:09.265Z,489.38
2018-05-19T09:34:09.495Z,495.00
2018-05-19T09:35:09.778Z,500.63
2018-05-19T09:36:10.009Z,506.25
2018-05-19T09:37:10.241Z,517.50
2018-05-19T09:38:10.473Z,523.13
2018-05-19T09:39:10.705Z,534.38
2018-05-19T09:40:10.933Z,551.25
2018-05-19T09:41:11.168Z,562.50
2018-05-19T09:42:11.408Z,573.75
2018-05-19T09:43:11.631Z,590.63
2018-05-19T09:44:11.863Z,596.25
2018-05-19T09:45:12.094Z,613.13
2018-05-19T09:46:12.326Z,630.00
2018-05-19T09:47:12.562Z,641.25
2018-05-19T09:48:12.790Z,675.00
2018-05-19T09:49:13.021Z,663.75
2018-05-19T09:50:13.250Z,663.75
2018-05-19T09:51:13.486Z,675.00
2018-05-19T09:52:13.712Z,725.63
2018-05-19T09:53:13.945Z,675.00
2018-05-19T09:54:14.179Z,669.38
2018-05-19T09:55:14.405Z,680.63
2018-05-19T09:56:14.650Z,658.13
2018-05-19T09:57:14.865Z,652.50
2018-05-19T09:58:15.101Z,669.38
2018-05-19T09:59:15.403Z,669.38
2018-05-19T10:00:15.563Z,675.00
2018-05-19T10:01:15.799Z,675.00
2018-05-19T10:02:16.028Z,675.00
2018-05-19T10:03:16.260Z,680.63
2018-05-19T10:04:16.492Z,686.25
2018-05-19T10:05:16.757Z,697.50
2018-05-19T10:06:16.948Z,703.13
2018-05-19T10:07:17.196Z,703.13
2018-05-19T10:08:17.437Z,708.75
2018-05-19T10:09:17.660Z,714.38
2018-05-19T10:10:17.897Z,720.00
2018-05-19T10:11:18.128Z,725.63
2018-05-19T10:12:18.361Z,731.25
2018-05-19T10:13:18.595Z,742.50
2018-05-19T10:14:18.829Z,742.50
2018-05-19T10:15:19.060Z,798.75
2018-05-19T10:16:19.294Z,742.50
2018-05-19T10:17:19.585Z,736.88
2018-05-19T10:18:19.766Z,753.75
2018-05-19T10:19:19.983Z,849.38
2018-05-19T10:20:20.217Z,843.75
2018-05-19T10:21:20.452Z,770.63
2018-05-19T10:22:20.675Z,748.13
2018-05-19T10:23:20.909Z,770.63
2018-05-19T10:24:21.139Z,776.25
2018-05-19T10:25:21.376Z,753.75
2018-05-19T10:26:21.609Z,736.88
2018-05-19T10:27:21.842Z,731.25
2018-05-19T10:28:22.129Z,736.88
2018-05-19T10:29:22.302Z,658.13
2018-05-19T10:30:22.533Z,652.50
2018-05-19T10:31:22.778Z,731.25
2018-05-19T10:32:23.004Z,731.25
2018-05-19T10:33:23.235Z,770.63
2018-05-19T10:34:23.462Z,759.38
2018-05-19T10:35:23.704Z,742.50
2018-05-19T10:36:23.937Z,675.00
2018-05-19T10:37:24.177Z,680.63
2018-05-19T10:38:24.411Z,714.38
2018-05-19T10:39:24.650Z,646.88
2018-05-19T10:40:24.884Z,703.13
2018-05-19T10:41:25.123Z,641.25
2018-05-19T10:42:25.349Z,618.75
2018-05-19T10:43:25.588Z,618.75
2018-05-19T10:44:25.814Z,618.75
2018-05-19T10:45:26.050Z,618.75
2018-05-19T10:46:26.283Z,613.13
2018-05-19T10:47:26.673Z,613.13
2018-05-19T10:48:26.744Z,618.75
2018-05-19T10:49:26.975Z,618.75
2018-05-19T10:50:27.215Z,658.13
2018-05-19T10:51:27.447Z,613.13
2018-05-19T10:52:27.684Z,601.88
2018-05-19T10:53:27.921Z,590.63
2018-05-19T10:54:28.153Z,579.38
2018-05-19T10:55:28.388Z,590.63
2018-05-19T10:56:28.615Z,590.63
2018-05-19T10:57:28.851Z,568.13
2018-05-19T10:58:29.082Z,556.88
2018-05-19T10:59:29.341Z,545.63
2018-05-19T11:00:29.580Z,545.63
2018-05-19T11:01:29.807Z,540.00
2018-05-19T11:02:30.037Z,540.00
2018-05-19T11:03:30.284Z,551.25
2018-05-19T11:04:30.508Z,556.88
2018-05-19T11:05:30.745Z,568.13
2018-05-19T11:06:30.976Z,590.63
2018-05-19T11:07:31.209Z,618.75
2018-05-19T11:08:31.452Z,675.00
2018-05-19T11:09:31.674Z,669.38
2018-05-19T11:10:31.894Z,663.75
2018-05-19T11:11:32.148Z,658.13
2018-05-19T11:12:32.386Z,658.13
2018-05-19T11:13:32.613Z,646.88
2018-05-19T11:14:32.850Z,568.13
2018-05-19T11:15:33.080Z,562.50
2018-05-19T11:16:33.313Z,556.88
2018-05-19T11:17:33.550Z,556.88
2018-05-19T11:18:33.840Z,562.50
2018-05-19T11:19:34.015Z,568.13
2018-05-19T11:20:34.332Z,568.13
2018-05-19T11:21:34.482Z,562.50
2018-05-19T11:22:34.732Z,568.13
2018-05-19T11:23:34.932Z,618.75
2018-05-19T11:24:35.182Z,613.13
2018-05-19T11:25:35.487Z,596.25
2018-05-19T11:26:35.661Z,573.75
2018-05-19T11:27:35.887Z,568.13
2018-05-19T11:28:36.109Z,573.75
2018-05-19T11:29:36.339Z,573.75
2018-05-19T11:30:36.574Z,585.00
2018-05-19T11:31:36.803Z,590.63
2018-05-19T11:32:37.035Z,573.75
2018-05-19T11:33:37.264Z,517.50
2018-05-19T11:34:37.507Z,511.88
2018-05-19T11:35:37.741Z,511.88
2018-05-19T11:36:37.973Z,528.75
2018-05-19T11:37:38.208Z,534.38
2018-05-19T11:38:38.443Z,579.38
2018-05-19T11:39:38.682Z,579.38
2018-05-19T11:40:38.910Z,585.00
2018-05-19T11:41:39.155Z,590.63
2018-05-19T11:42:39.372Z,590.63
2018-05-19T11:43:39.610Z,590.63
2018-05-19T11:44:39.843Z,590.63
2018-05-19T11:45:40.164Z,596.25
2018-05-19T11:46:40.345Z,590.63
2018-05-19T11:47:40.580Z,573.75
2018-05-19T11:48:40.819Z,573.75
2018-05-19T11:49:41.045Z,601.88
2018-05-19T11:50:41.278Z,556.88
2018-05-19T11:51:41.508Z,523.13
2018-05-19T11:52:41.747Z,506.25
2018-05-19T11:53:41.984Z,500.63
2018-05-19T11:54:42.204Z,483.75
2018-05-19T11:55:42.443Z,472.50
2018-05-19T11:56:42.678Z,466.88
2018-05-19T11:57:42.905Z,478.13
2018-05-19T11:58:43.139Z,472.50
2018-05-19T11:59:43.375Z,517.50
2018-05-19T12:00:43.603Z,528.75
2018-05-19T12:01:43.832Z,523.13
2018-05-19T12:02:44.102Z,534.38
2018-05-19T12:03:44.305Z,540.00
2018-05-19T12:04:44.534Z,545.63
2018-05-19T12:05:44.800Z,551.25
2018-05-19T12:06:45.005Z,545.63
2018-05-19T12:07:45.246Z,551.25
2018-05-19T12:08:45.472Z,556.88
2018-05-19T12:09:45.707Z,556.88
2018-05-19T12:10:45.932Z,556.88
2018-05-19T12:11:46.178Z,551.25
2018-05-19T12:12:46.407Z,545.63
2018-05-19T12:13:46.627Z,540.00
2018-05-19T12:14:46.861Z,534.38
2018-05-19T12:15:47.091Z,534.38
2018-05-19T12:16:47.339Z,540.00
2018-05-19T12:17:47.562Z,528.75
2018-05-19T12:18:47.792Z,534.38
2018-05-19T12:19:48.026Z,506.25
2018-05-19T12:20:48.262Z,472.50
2018-05-19T12:21:48.506Z,466.88
2018-05-19T12:22:48.745Z,461.25
2018-05-19T12:23:48.961Z,466.88
2018-05-19T12:24:49.191Z,461.25
2018-05-19T12:25:49.425Z,489.38
2018-05-19T12:26:49.661Z,455.63
2018-05-19T12:27:49.895Z,455.63
2018-05-19T12:28:50.122Z,455.63
2018-05-19T12:29:51.234Z,461.25
2018-05-19T12:30:50.586Z,466.88
2018-05-19T12:31:50.832Z,483.75
2018-05-19T12:32:51.045Z,523.13
2018-05-19T12:33:51.281Z,562.50
2018-05-19T12:34:51.513Z,545.63
2018-05-19T12:35:51.743Z,478.13
2018-05-19T12:36:51.994Z,478.13
2018-05-19T12:37:52.206Z,489.38
2018-05-19T12:38:52.446Z,483.75
2018-05-19T12:39:52.668Z,534.38
2018-05-19T12:40:52.901Z,579.38
2018-05-19T12:41:53.134Z,601.88
2018-05-19T12:42:53.355Z,613.13
2018-05-19T12:43:53.583Z,635.63
2018-05-19T12:44:53.816Z,641.25
2018-05-19T12:45:54.055Z,646.88